createdAt,value
2022-10-17T00:00:51.524Z,101226.09
2022-10-17T00:03:18.930Z,101201.06
2022-10-17T00:05:47.865Z,101221.78
2022-10-17T00:08:17.005Z,101218.31
2022-10-17T00:10:44.494Z,101189.78
2022-10-17T00:13:12.445Z,101219.19
2022-10-17T00:15:45.047Z,101215.72
2022-10-17T00:18:12.604Z,101203.63
2022-10-17T00:20:39.898Z,101203.63
2022-10-17T00:23:07.137Z,101173.38
2022-10-17T00:25:34.302Z,101217.44
2022-10-17T00:28:01.327Z,101220.03
2022-10-17T00:30:28.483Z,101180.31
2022-10-17T00:32:55.705Z,101226.09
2022-10-17T00:35:23.095Z,101226.97
2022-10-17T00:37:50.267Z,101179.47
2022-10-17T00:40:17.714Z,101227.81
2022-10-17T00:42:47.143Z,101227.84
2022-10-17T00:45:30.559Z,101226.06
2022-10-17T00:48:21.179Z,101219.16
2022-10-17T00:50:51.288Z,101229.50
2022-10-17T00:53:19.023Z,101224.31
2022-10-17T00:55:51.167Z,101233.00
2022-10-17T00:58:19.108Z,101235.56
2022-10-17T01:00:48.730Z,101227.78
2022-10-17T01:03:16.656Z,101193.22
2022-10-17T01:05:44.094Z,101241.59
2022-10-17T01:08:12.616Z,101241.59
2022-10-17T01:11:10.665Z,101249.38
2022-10-17T01:14:13.462Z,101251.97
2022-10-17T01:16:40.888Z,101241.53
2022-10-17T01:19:27.883Z,101242.41
2022-10-17T01:22:18.520Z,101232.88
2022-10-17T01:25:22.208Z,101226.81
2022-10-17T01:27:57.162Z,101244.13
2022-10-17T01:30:48.956Z,101246.72
2022-10-17T01:33:54.913Z,101246.75
2022-10-17T01:36:37.213Z,101256.28
2022-10-17T01:39:15.396Z,101255.41
2022-10-17T01:42:03.734Z,101248.50
2022-10-17T01:44:41.632Z,101253.69
2022-10-17T01:47:13.965Z,101256.28
2022-10-17T01:49:44.291Z,101258.88
2022-10-17T01:52:21.217Z,101172.50
2022-10-17T01:54:56.314Z,101260.56
2022-10-17T01:57:37.759Z,101251.91
2022-10-17T02:00:09.342Z,101250.16
2022-10-17T02:02:42.748Z,101201.78
2022-10-17T02:05:11.078Z,101246.69
2022-10-17T02:07:38.305Z,101213.00
2022-10-17T02:10:12.738Z,101229.38
2022-10-17T02:13:01.237Z,101231.13
2022-10-17T02:15:40.804Z,101238.06
2022-10-17T02:18:15.272Z,101231.09
2022-10-17T02:21:01.091Z,101241.50
2022-10-17T02:23:35.064Z,101252.75
2022-10-17T02:26:14.434Z,101254.47
2022-10-17T02:29:05.314Z,101215.56
2022-10-17T02:31:39.847Z,101248.44
2022-10-17T02:34:20.133Z,101248.44
2022-10-17T02:36:54.256Z,101244.97
2022-10-17T02:39:23.862Z,101261.44
2022-10-17T02:41:53.039Z,101241.53
2022-10-17T02:44:22.194Z,101263.16
2022-10-17T02:46:59.945Z,101215.59
2022-10-17T02:49:31.985Z,101231.16
2022-10-17T02:52:14.909Z,101248.44
2022-10-17T02:54:48.123Z,101258.84
2022-10-17T02:57:31.362Z,101259.66
2022-10-17T03:00:01.216Z,101241.50
2022-10-17T03:02:29.513Z,101251.88
2022-10-17T03:04:56.994Z,101219.06
2022-10-17T03:07:24.100Z,101274.38
2022-10-17T03:09:51.243Z,101276.13
2022-10-17T03:12:18.424Z,101269.19
2022-10-17T03:14:46.112Z,101272.63
2022-10-17T03:17:13.237Z,101270.88
2022-10-17T03:19:41.314Z,101280.44
2022-10-17T03:22:09.465Z,101264.03
2022-10-17T03:24:37.485Z,101227.75
2022-10-17T03:27:04.998Z,101283.88
2022-10-17T03:29:32.213Z,101241.56
2022-10-17T03:31:59.423Z,101289.94
2022-10-17T03:34:26.577Z,101252.75
2022-10-17T03:36:54.799Z,101282.16
2022-10-17T03:39:22.398Z,101232.88
2022-10-17T03:41:50.014Z,101279.56
2022-10-17T03:44:17.116Z,101263.97
2022-10-17T03:46:44.628Z,101265.78
2022-10-17T03:49:11.973Z,101299.50
2022-10-17T03:51:40.036Z,101264.06
2022-10-17T03:54:11.884Z,101267.56
2022-10-17T03:56:40.024Z,101274.47
2022-10-17T03:59:16.000Z,101300.41
2022-10-17T04:01:49.888Z,101293.47
2022-10-17T04:04:17.517Z,101252.88
2022-10-17T04:06:45.051Z,101307.31
2022-10-17T04:09:12.396Z,101298.72
2022-10-17T04:11:50.571Z,101302.13
2022-10-17T04:14:17.847Z,101308.19
2022-10-17T04:16:45.023Z,101276.25
2022-10-17T04:19:16.748Z,101251.16
2022-10-17T04:21:46.836Z,101301.28
2022-10-17T04:24:15.661Z,101251.13
2022-10-17T04:26:43.161Z,101302.13
2022-10-17T04:29:11.323Z,101296.06
2022-10-17T04:31:39.850Z,101204.47
2022-10-17T04:34:25.440Z,101232.94
2022-10-17T04:36:52.593Z,101285.66
2022-10-17T04:39:20.320Z,101298.66
2022-10-17T04:41:48.198Z,101312.53
2022-10-17T04:44:15.732Z,101316.88
2022-10-17T04:46:48.973Z,101279.75
2022-10-17T04:49:16.390Z,101286.66
2022-10-17T04:51:46.892Z,101323.00
2022-10-17T04:54:19.916Z,101326.44
2022-10-17T04:56:52.055Z,101284.94
2022-10-17T04:59:19.623Z,101336.81
2022-10-17T05:01:50.395Z,101336.81
2022-10-17T05:04:21.101Z,101335.94
2022-10-17T05:06:51.353Z,101338.53
2022-10-17T05:09:36.803Z,101333.34
2022-10-17T05:12:06.758Z,101243.44
2022-10-17T05:14:38.156Z,101328.09
2022-10-17T05:17:05.681Z,101325.53
2022-10-17T05:19:32.954Z,101345.44
2022-10-17T05:22:00.506Z,101338.50
2022-10-17T05:24:27.563Z,101338.50
2022-10-17T05:26:54.817Z,101338.50
2022-10-17T05:29:24.011Z,101332.44
2022-10-17T05:31:56.702Z,101292.69
2022-10-17T05:34:25.295Z,101302.22
2022-10-17T05:36:52.476Z,101279.69
2022-10-17T05:39:23.575Z,101339.38
2022-10-17T05:41:52.896Z,101341.09
2022-10-17T05:44:20.603Z,101322.91
2022-10-17T05:46:53.826Z,101342.81
2022-10-17T05:49:32.551Z,101306.50
2022-10-17T05:52:07.785Z,101350.59
2022-10-17T05:54:45.885Z,101305.59
2022-10-17T05:57:13.275Z,101355.75
2022-10-17T05:59:41.634Z,101353.16
2022-10-17T06:02:13.787Z,101261.53
2022-10-17T06:04:45.834Z,101360.91
2022-10-17T06:07:14.486Z,101339.25
2022-10-17T06:12:17.081Z,101342.75
2022-10-17T06:14:45.448Z,101355.66
2022-10-17T06:17:16.252Z,101346.13
2022-10-17T06:19:48.010Z,101348.69
2022-10-17T06:22:16.116Z,101365.09
2022-10-17T06:24:43.687Z,101362.47
2022-10-17T06:27:12.255Z,101366.75
2022-10-17T06:29:41.355Z,101369.34
2022-10-17T06:32:11.299Z,101359.81
2022-10-17T06:34:42.482Z,101350.25
2022-10-17T06:37:10.602Z,101351.97
2022-10-17T06:39:39.879Z,101373.53
2022-10-17T06:42:20.679Z,101369.19
2022-10-17T06:45:04.175Z,101375.22
2022-10-17T06:47:54.277Z,101382.97
2022-10-17T06:50:43.106Z,101386.41
2022-10-17T06:53:17.131Z,101377.75
2022-10-17T06:56:13.562Z,101383.81
2022-10-17T06:58:54.285Z,101395.03
2022-10-17T07:01:34.907Z,101399.38
2022-10-17T07:04:03.866Z,101399.34
2022-10-17T07:06:32.263Z,101405.38
2022-10-17T07:09:07.108Z,101349.22
2022-10-17T07:11:37.366Z,101408.81
2022-10-17T07:14:04.566Z,101411.38
2022-10-17T07:16:31.667Z,101386.28
2022-10-17T07:19:08.535Z,101406.13
2022-10-17T07:21:39.261Z,101406.06
2022-10-17T07:24:08.913Z,101420.69
2022-10-17T07:26:36.424Z,101417.28
2022-10-17T07:29:06.623Z,101420.66
2022-10-17T07:31:38.232Z,101427.59
2022-10-17T07:34:05.617Z,101418.91
2022-10-17T07:36:33.155Z,101386.00
2022-10-17T07:39:03.301Z,101403.22
2022-10-17T07:41:31.689Z,101381.53
2022-10-17T07:43:59.397Z,101417.78
2022-10-17T07:46:32.535Z,101407.31
2022-10-17T07:49:00.216Z,101369.31
2022-10-17T07:51:28.176Z,101404.53
2022-10-17T07:53:55.268Z,101396.63
2022-10-17T07:56:24.954Z,101398.28
2022-10-17T07:58:53.442Z,101355.75
2022-10-17T08:01:20.731Z,101391.94
2022-10-17T08:03:51.034Z,101386.72
2022-10-17T08:06:18.803Z,101388.28
2022-10-17T08:08:46.604Z,101395.25
2022-10-17T08:11:15.025Z,101403.03
2022-10-17T08:13:42.641Z,101388.28
2022-10-17T08:16:12.805Z,101395.97
2022-10-17T08:18:42.090Z,101394.09
2022-10-17T08:21:10.045Z,101367.19
2022-10-17T08:23:38.073Z,101390.38
2022-10-17T08:26:10.841Z,101385.94
2022-10-17T08:28:40.278Z,101389.19
2022-10-17T08:31:13.470Z,101382.03
2022-10-17T08:33:42.192Z,101387.09
2022-10-17T08:36:10.625Z,101386.16
2022-10-17T08:38:43.176Z,101367.09
2022-10-17T08:41:28.894Z,101384.31
2022-10-17T08:44:05.604Z,101381.72
2022-10-17T08:46:36.520Z,101372.16
2022-10-17T08:49:12.188Z,101391.13
2022-10-17T08:51:48.283Z,101390.22
2022-10-17T08:54:41.099Z,101383.22
2022-10-17T08:57:18.787Z,101390.00
2022-10-17T08:59:50.754Z,101372.47
2022-10-17T09:02:48.615Z,101388.63
2022-10-17T09:05:26.477Z,101384.09
2022-10-17T09:08:20.285Z,101378.72
2022-10-17T09:10:58.875Z,101381.16
2022-10-17T09:13:59.806Z,101386.19
2022-10-17T09:16:55.187Z,101360.94
2022-10-17T09:19:39.493Z,101375.44
2022-10-17T09:22:09.417Z,101371.00
2022-10-17T09:24:55.887Z,101376.16
2022-10-17T09:27:42.751Z,101358.81
2022-10-17T09:30:44.800Z,101379.47
2022-10-17T09:33:28.197Z,101324.88
2022-10-17T09:36:30.056Z,101363.56
2022-10-17T09:39:00.014Z,101369.59
2022-10-17T09:41:46.889Z,101373.72
2022-10-17T09:44:22.125Z,101366.56
2022-10-17T09:46:55.403Z,101369.94
2022-10-17T09:49:34.889Z,101369.84
2022-10-17T09:52:05.687Z,101365.19
2022-10-17T09:54:55.334Z,101369.41
2022-10-17T09:57:23.028Z,101372.78
2022-10-17T09:59:56.172Z,101369.16
2022-10-17T10:02:25.859Z,101364.00
2022-10-17T10:05:06.379Z,101364.91
2022-10-17T10:07:39.136Z,101365.69
2022-10-17T10:10:23.136Z,101360.34
2022-10-17T10:13:05.093Z,101343.19
2022-10-17T10:15:39.079Z,101370.81
2022-10-17T10:18:36.513Z,101353.25
2022-10-17T10:21:20.457Z,101370.19
2022-10-17T10:24:00.048Z,101366.50
2022-10-17T10:26:32.925Z,101360.19
2022-10-17T10:29:07.529Z,101362.56
2022-10-17T10:31:40.458Z,101336.59
2022-10-17T10:34:22.062Z,101366.63
2022-10-17T10:36:55.653Z,101359.31
2022-10-17T10:39:32.283Z,101350.47
2022-10-17T10:42:02.448Z,101353.94
2022-10-17T10:44:32.279Z,101347.75
2022-10-17T10:47:24.444Z,101332.44
2022-10-17T10:50:06.498Z,101349.47
2022-10-17T10:52:43.491Z,101341.56
2022-10-17T10:55:27.643Z,101333.66
2022-10-17T10:58:01.432Z,101337.94
2022-10-17T11:00:30.932Z,101330.03
2022-10-17T11:03:19.869Z,101314.47
2022-10-17T11:05:53.831Z,101318.56
2022-10-17T11:08:26.599Z,101310.66
2022-10-17T11:11:30.720Z,101314.84
2022-10-17T11:14:08.780Z,101281.97
2022-10-17T11:16:44.366Z,101316.28
2022-10-17T11:19:20.679Z,101313.47
2022-10-17T11:22:03.973Z,101304.50
2022-10-17T11:24:48.194Z,101287.09
2022-10-17T11:27:15.806Z,101306.09
2022-10-17T11:29:46.288Z,101306.72
2022-10-17T11:32:19.942Z,101309.16
2022-10-17T11:34:51.673Z,101308.94
2022-10-17T11:37:23.558Z,101298.34
2022-10-17T11:40:19.127Z,101299.97
2022-10-17T11:42:59.682Z,101298.78
2022-10-17T11:45:30.143Z,101292.59
2022-10-17T11:48:06.930Z,101290.75
2022-10-17T11:53:43.583Z,101288.94
2022-10-17T11:56:13.126Z,101297.72
2022-10-17T11:58:47.350Z,101294.28
2022-10-17T12:01:41.324Z,101284.09
2022-10-17T12:04:49.553Z,101294.50
2022-10-17T12:07:51.324Z,101294.59
2022-10-17T12:10:29.795Z,101287.50
2022-10-17T12:12:57.183Z,101212.97
2022-10-17T12:15:24.525Z,101294.50
2022-10-17T12:18:17.437Z,101292.69
2022-10-17T12:20:57.563Z,101279.56
2022-10-17T12:23:29.509Z,101263.00
2022-10-17T12:26:04.708Z,101278.53
2022-10-17T12:28:41.361Z,101271.44
2022-10-17T12:31:29.719Z,101257.72
2022-10-17T12:34:03.564Z,101277.19
2022-10-17T12:36:30.697Z,101268.25
2022-10-17T12:39:04.264Z,101263.75
2022-10-17T12:41:40.809Z,101267.19
2022-10-17T12:44:14.137Z,101272.34
2022-10-17T12:46:57.551Z,101275.81
2022-10-17T12:49:36.943Z,101266.13
2022-10-17T12:52:26.534Z,101233.94
2022-10-17T12:55:14.875Z,101253.63
2022-10-17T12:57:48.254Z,101257.09
2022-10-17T13:00:32.995Z,101256.13
2022-10-17T13:03:11.545Z,101252.69
2022-10-17T13:05:42.044Z,101244.13
2022-10-17T13:08:18.350Z,101223.44
2022-10-17T13:10:51.562Z,101247.22
2022-10-17T13:13:40.886Z,101245.28
2022-10-17T13:16:08.365Z,101239.78
2022-10-17T13:18:35.997Z,101226.06
2022-10-17T13:21:14.573Z,101243.09
2022-10-17T13:23:42.280Z,101222.53
2022-10-17T13:26:18.783Z,101206.31
2022-10-17T13:28:47.588Z,101231.13
2022-10-17T13:31:38.684Z,101235.81
2022-10-17T13:34:16.722Z,101235.50
2022-10-17T13:36:48.828Z,101227.72
2022-10-17T13:39:32.106Z,101221.16
2022-10-17T13:42:07.563Z,101226.41
2022-10-17T13:44:37.786Z,101215.34
2022-10-17T13:47:22.214Z,101184.72
2022-10-17T13:49:52.949Z,101195.94
2022-10-17T13:52:26.083Z,101216.44
2022-10-17T13:54:54.397Z,101208.75
2022-10-17T13:57:29.699Z,101224.28
2022-10-17T14:00:04.404Z,101215.47
2022-10-17T14:02:42.320Z,101201.47
2022-10-17T14:05:17.782Z,101210.06
2022-10-17T14:08:12.388Z,101203.94
2022-10-17T14:10:43.896Z,101195.41
2022-10-17T14:13:26.883Z,101196.09
2022-10-17T14:16:01.894Z,101209.13
2022-10-17T14:18:36.487Z,101198.00
2022-10-17T14:24:12.683Z,101171.59
2022-10-17T14:26:59.082Z,101198.34
2022-10-17T14:29:53.105Z,101188.94
2022-10-17T14:32:21.651Z,101201.31
2022-10-17T14:34:58.367Z,101189.19
2022-10-17T14:37:46.684Z,101192.91
2022-10-17T14:40:20.013Z,101196.59
2022-10-17T14:42:48.941Z,101189.78
2022-10-17T14:45:27.093Z,101185.63
2022-10-17T14:47:57.007Z,101181.22
2022-10-17T14:50:29.654Z,101184.88
2022-10-17T14:53:06.764Z,101178.91
2022-10-17T14:55:36.133Z,101164.50
2022-10-17T14:58:23.052Z,101162.97
2022-10-17T15:00:50.367Z,101180.38
2022-10-17T15:03:19.539Z,101185.72
2022-10-17T15:05:53.483Z,101182.41
2022-10-17T15:08:23.521Z,101180.69
2022-10-17T15:10:51.594Z,101186.00
2022-10-17T15:13:28.236Z,101175.72
2022-10-17T15:15:56.767Z,101169.63
2022-10-17T15:18:24.048Z,101153.56
2022-10-17T15:20:59.548Z,101169.31
2022-10-17T15:23:32.478Z,101148.63
2022-10-17T15:25:59.673Z,101148.16
2022-10-17T15:28:27.565Z,101181.63
2022-10-17T15:30:54.851Z,101180.91
2022-10-17T15:33:22.468Z,101149.41
2022-10-17T15:35:49.874Z,101182.03
2022-10-17T15:38:18.603Z,101185.63
2022-10-17T15:40:49.103Z,101190.13
2022-10-17T15:43:19.778Z,101189.44
2022-10-17T15:45:47.751Z,101181.72
2022-10-17T15:48:26.719Z,101190.53
2022-10-17T15:50:53.844Z,101177.78
2022-10-17T15:53:21.103Z,101191.63
2022-10-17T15:55:51.244Z,101185.63
2022-10-17T15:58:19.916Z,101176.94
2022-10-17T16:00:48.047Z,101184.81
2022-10-17T16:03:15.439Z,101184.91
2022-10-17T16:05:42.733Z,101192.84
2022-10-17T16:08:09.865Z,101173.13
2022-10-17T16:10:40.028Z,101175.06
2022-10-17T16:13:07.225Z,101199.16
2022-10-17T16:15:34.443Z,101091.75
2022-10-17T16:18:04.283Z,101205.44
2022-10-17T16:20:33.854Z,101201.13
2022-10-17T16:23:03.341Z,101202.94
2022-10-17T16:25:32.433Z,101209.97
2022-10-17T16:28:01.172Z,101205.59
2022-10-17T16:30:30.885Z,101203.06
2022-10-17T16:32:58.208Z,101201.44
2022-10-17T16:35:31.930Z,101199.91
2022-10-17T16:38:02.286Z,101211.91
2022-10-17T16:40:29.409Z,101200.59
2022-10-17T16:42:56.697Z,101202.38
2022-10-17T16:45:23.913Z,101203.31
2022-10-17T16:47:51.258Z,101191.22
2022-10-17T16:50:18.914Z,101197.22
2022-10-17T16:52:46.131Z,101198.16
2022-10-17T16:55:13.606Z,101162.22
2022-10-17T17:00:17.156Z,101200.22
2022-10-17T17:02:47.303Z,101201.03
2022-10-17T17:05:14.567Z,101202.00
2022-10-17T17:07:41.682Z,101215.25
2022-10-17T17:10:09.737Z,101214.38
2022-10-17T17:12:37.365Z,101220.63
2022-10-17T17:15:05.116Z,101215.47
2022-10-17T17:17:48.719Z,101207.78
2022-10-17T17:20:18.659Z,101204.41
2022-10-17T17:22:45.916Z,101205.34
2022-10-17T17:25:13.082Z,101178.78
2022-10-17T17:27:40.582Z,101210.59
2022-10-17T17:30:08.371Z,101213.22
2022-10-17T17:32:35.678Z,101207.31
2022-10-17T17:35:02.961Z,101178.06
2022-10-17T17:37:30.294Z,101217.72
2022-10-17T17:39:57.717Z,101210.81
2022-10-17T17:42:24.913Z,101210.03
2022-10-17T17:44:52.484Z,101191.19
2022-10-17T17:47:19.838Z,101176.63
2022-10-17T17:49:47.140Z,101211.03
2022-10-17T17:52:14.605Z,101204.97
2022-10-17T17:54:41.843Z,101199.84
2022-10-17T17:57:09.145Z,101199.81
2022-10-17T17:59:37.965Z,101193.75
2022-10-17T18:02:07.055Z,101173.91
2022-10-17T18:04:34.482Z,101198.06
2022-10-17T18:07:01.936Z,101160.13
2022-10-17T18:09:29.144Z,101182.59
2022-10-17T18:11:56.267Z,101169.69
2022-10-17T18:14:24.263Z,101169.75
2022-10-17T18:16:51.437Z,101191.31
2022-10-17T18:19:18.761Z,101177.69
2022-10-17T18:21:46.173Z,101186.19
2022-10-17T18:24:13.413Z,101151.84
2022-10-17T18:26:40.613Z,101184.56
2022-10-17T18:29:07.788Z,101144.81
2022-10-17T18:31:37.555Z,101181.94
2022-10-17T18:34:05.893Z,101174.97
2022-10-17T18:36:34.845Z,101168.91
2022-10-17T18:39:03.073Z,101174.16
2022-10-17T18:41:31.317Z,101169.78
2022-10-17T18:43:58.622Z,101168.91
2022-10-17T18:46:32.662Z,101150.00
2022-10-17T18:48:59.900Z,101159.44
2022-10-17T18:51:27.865Z,101166.38
2022-10-17T18:53:58.873Z,101170.59
2022-10-17T18:56:26.725Z,101142.25
2022-10-17T18:58:54.196Z,101158.44
2022-10-17T19:01:24.563Z,101165.31
2022-10-17T19:03:54.075Z,101145.53
2022-10-17T19:06:24.347Z,101152.34
2022-10-17T19:08:51.445Z,101166.97
2022-10-17T19:11:24.657Z,101175.72
2022-10-17T19:13:53.048Z,101161.16
2022-10-17T19:16:31.926Z,101107.00
2022-10-17T19:19:02.324Z,101167.06
2022-10-17T19:21:29.481Z,101161.84
2022-10-17T19:24:00.059Z,101161.00
2022-10-17T19:26:29.035Z,101163.63
2022-10-17T19:28:56.906Z,101167.06
2022-10-17T19:31:27.074Z,101163.63
2022-10-17T19:33:57.015Z,101153.06
2022-10-17T19:36:30.463Z,101160.09
2022-10-17T19:39:06.134Z,101161.75
2022-10-17T19:41:34.127Z,101065.41
2022-10-17T19:44:01.507Z,101159.13
2022-10-17T19:46:30.198Z,101153.06
2022-10-17T19:48:57.615Z,101143.59
2022-10-17T19:51:26.005Z,101137.72
2022-10-17T19:53:55.244Z,101160.00
2022-10-17T19:56:24.491Z,101165.25
2022-10-17T19:58:52.612Z,101163.53
2022-10-17T20:01:25.870Z,101167.06
2022-10-17T20:03:54.104Z,101170.56
2022-10-17T20:06:22.258Z,101165.31
2022-10-17T20:08:50.202Z,101163.66
2022-10-17T20:11:23.666Z,101166.22
2022-10-17T20:13:51.753Z,101172.31
2022-10-17T20:16:22.257Z,101173.28
2022-10-17T20:18:51.422Z,101174.22
2022-10-17T20:21:25.223Z,101174.25
2022-10-17T20:23:52.418Z,101148.56
2022-10-17T20:26:33.528Z,101181.31
2022-10-17T20:29:09.053Z,101178.03
2022-10-17T20:31:36.717Z,101193.56
2022-10-17T20:34:04.425Z,101176.34
2022-10-17T20:36:32.644Z,101164.09
2022-10-17T20:39:00.087Z,101101.66
2022-10-17T20:41:27.386Z,101179.72
2022-10-17T20:43:55.964Z,101195.44
2022-10-17T20:46:36.243Z,101161.06
2022-10-17T20:49:06.384Z,101193.78
2022-10-17T20:51:34.944Z,101186.91
2022-10-17T20:54:03.173Z,101151.63
2022-10-17T20:56:32.291Z,101133.56
2022-10-17T20:59:06.332Z,101184.38
2022-10-17T21:01:35.869Z,101185.31
2022-10-17T21:04:27.075Z,101182.84
2022-10-17T21:06:52.457Z,101154.47
2022-10-17T21:09:20.777Z,101178.59
2022-10-17T21:11:51.432Z,101176.84
2022-10-17T21:14:19.203Z,101177.00
2022-10-17T21:16:46.485Z,101175.22
2022-10-17T21:19:14.797Z,101177.00
2022-10-17T21:21:44.604Z,101163.38
2022-10-17T21:24:14.538Z,101153.03
2022-10-17T21:26:43.002Z,101110.00
2022-10-17T21:29:10.985Z,101165.94
2022-10-17T21:31:40.793Z,101168.53
2022-10-17T21:34:13.144Z,101171.22
2022-10-17T21:36:40.374Z,101141.03
2022-10-17T21:41:35.205Z,101168.69
2022-10-17T21:44:05.537Z,101154.00
2022-10-17T21:46:33.073Z,101169.63
2022-10-17T21:49:01.312Z,101142.03
2022-10-17T21:51:29.001Z,101162.66
2022-10-17T21:53:57.426Z,101170.53
2022-10-17T21:56:30.919Z,101174.09
2022-10-17T21:58:59.113Z,101177.63
2022-10-17T22:01:32.006Z,101167.16
2022-10-17T22:04:01.518Z,101169.84
2022-10-17T22:06:39.840Z,101148.41
2022-10-17T22:09:13.131Z,101163.03
2022-10-17T22:11:41.796Z,101165.69
2022-10-17T22:14:13.125Z,101168.41
2022-10-17T22:16:41.291Z,101171.88
2022-10-17T22:19:09.466Z,101166.69
2022-10-17T22:21:37.823Z,101167.66
2022-10-17T22:24:08.172Z,101170.28
2022-10-17T22:26:36.131Z,101171.28
2022-10-17T22:29:04.744Z,101173.03
2022-10-17T22:31:31.907Z,101124.94
2022-10-17T22:33:59.060Z,101159.28
2022-10-17T22:36:26.567Z,101164.41
2022-10-17T22:38:53.749Z,101159.22
2022-10-17T22:41:21.236Z,101159.19
2022-10-17T22:43:48.474Z,101162.84
2022-10-17T22:46:17.325Z,101112.81
2022-10-17T22:48:44.812Z,101171.47
2022-10-17T22:51:12.290Z,101154.06
2022-10-17T22:53:39.942Z,101153.41
2022-10-17T22:56:12.336Z,101161.13
2022-10-17T22:58:39.916Z,101160.38
2022-10-17T23:01:08.967Z,101156.03
2022-10-17T23:03:36.536Z,101152.63
2022-10-17T23:06:03.877Z,101156.09
2022-10-17T23:08:31.582Z,101160.53
2022-10-17T23:10:58.971Z,101149.50
2022-10-17T23:13:26.358Z,101167.59
2022-10-17T23:15:55.573Z,101172.88
2022-10-17T23:18:23.802Z,101170.25
2022-10-17T23:20:51.652Z,101161.66
2022-10-17T23:23:19.748Z,101160.06
2022-10-17T23:25:47.393Z,101168.69
2022-10-17T23:28:14.504Z,101165.34
2022-10-17T23:30:42.053Z,101160.13
2022-10-17T23:33:12.167Z,101156.78
2022-10-17T23:35:40.055Z,101160.22
2022-10-17T23:38:07.323Z,101168.09
2022-10-17T23:40:35.587Z,101160.28
2022-10-17T23:43:03.664Z,101156.88
2022-10-17T23:45:36.044Z,101160.38
2022-10-17T23:48:05.573Z,101079.50
2022-10-17T23:50:32.709Z,101153.53
2022-10-17T23:52:59.906Z,101150.09
2022-10-17T23:55:27.232Z,101155.31
2022-10-17T23:57:54.576Z,101157.16
